sensor_id;sensor_type;location;lat;lon;timestamp;pressure;altitude;pressure_sealevel;temperature;humidity
72585;BME280;60618;40.084;32.908;2022-08-25T00:01:56;88889.31;;;22.19;56.78
72585;BME280;60618;40.084;32.908;2022-08-25T00:04:24;88897.63;;;22.21;56.35
72585;BME280;60618;40.084;32.908;2022-08-25T00:06:52;88885.88;;;22.18;56.88
72585;BME280;60618;40.084;32.908;2022-08-25T00:09:23;88895.84;;;22.16;57.19
72585;BME280;60618;40.084;32.908;2022-08-25T00:11:50;88902.56;;;22.15;57.22
72585;BME280;60618;40.084;32.908;2022-08-25T00:14:23;88896.09;;;22.10;57.70
72585;BME280;60618;40.084;32.908;2022-08-25T00:16:51;88898.63;;;22.08;58.11
72585;BME280;60618;40.084;32.908;2022-08-25T00:19:25;88893.59;;;22.04;58.42
72585;BME280;60618;40.084;32.908;2022-08-25T00:21:54;88893.75;;;22.06;57.52
72585;BME280;60618;40.084;32.908;2022-08-25T00:24:21;88887.06;;;22.07;58.81
72585;BME280;60618;40.084;32.908;2022-08-25T00:26:51;88883.09;;;22.08;58.55
72585;BME280;60618;40.084;32.908;2022-08-25T00:29:21;88885.94;;;22.10;58.87
72585;BME280;60618;40.084;32.908;2022-08-25T00:31:48;88891.94;;;22.09;58.61
72585;BME280;60618;40.084;32.908;2022-08-25T00:34:19;88889.22;;;22.09;58.83
72585;BME280;60618;40.084;32.908;2022-08-25T00:36:47;88893.22;;;22.08;58.90
72585;BME280;60618;40.084;32.908;2022-08-25T00:39:14;88886.50;;;22.09;59.64
72585;BME280;60618;40.084;32.908;2022-08-25T00:41:42;88892.50;;;22.07;59.51
72585;BME280;60618;40.084;32.908;2022-08-25T00:44:11;88887.78;;;22.08;59.38
72585;BME280;60618;40.084;32.908;2022-08-25T00:46:47;88879.16;;;22.02;60.40
72585;BME280;60618;40.084;32.908;2022-08-25T00:49:35;88874.13;;;21.98;60.36
72585;BME280;60618;40.084;32.908;2022-08-25T00:52:14;88884.66;;;21.94;60.00
72585;BME280;60618;40.084;32.908;2022-08-25T00:55:47;88887.03;;;21.90;59.10
72585;BME280;60618;40.084;32.908;2022-08-25T00:58:08;88893.03;;;21.89;59.09
72585;BME280;60618;40.084;32.908;2022-08-25T01:00:41;88888.88;;;21.88;58.88
72585;BME280;60618;40.084;32.908;2022-08-25T01:03:09;88899.16;;;21.89;58.55
72585;BME280;60618;40.084;32.908;2022-08-25T01:05:37;88898.59;;;21.91;58.29
72585;BME280;60618;40.084;32.908;2022-08-25T01:08:06;88898.78;;;21.93;57.00
72585;BME280;60618;40.084;32.908;2022-08-25T01:10:37;88896.38;;;21.97;56.69
72585;BME280;60618;40.084;32.908;2022-08-25T01:13:13;88890.72;;;22.02;56.51
72585;BME280;60618;40.084;32.908;2022-08-25T01:15:43;88883.31;;;22.03;56.80
72585;BME280;60618;40.084;32.908;2022-08-25T01:18:10;88880.75;;;22.05;56.49
72585;BME280;60618;40.084;32.908;2022-08-25T01:20:38;88885.22;;;22.10;56.24
72585;BME280;60618;40.084;32.908;2022-08-25T01:23:05;88888.13;;;22.12;56.34
72585;BME280;60618;40.084;32.908;2022-08-25T01:26:08;88888.13;;;22.12;56.24
72585;BME280;60618;40.084;32.908;2022-08-25T01:28:36;88893.56;;;22.12;56.83
72585;BME280;60618;40.084;32.908;2022-08-25T01:31:03;88889.56;;;22.13;56.79
72585;BME280;60618;40.084;32.908;2022-08-25T01:33:49;88898.25;;;22.12;56.94
72585;BME280;60618;40.084;32.908;2022-08-25T01:36:18;88891.38;;;22.10;57.12
72585;BME280;60618;40.084;32.908;2022-08-25T01:38:45;88889.94;;;22.09;56.91
72585;BME280;60618;40.084;32.908;2022-08-25T01:41:16;88889.22;;;22.09;56.61
72585;BME280;60618;40.084;32.908;2022-08-25T01:43:43;88889.22;;;22.09;56.04
72585;BME280;60618;40.084;32.908;2022-08-25T01:46:10;88891.56;;;22.13;55.68
72585;BME280;60618;40.084;32.908;2022-08-25T01:48:37;88884.84;;;22.14;55.25
72585;BME280;60618;40.084;32.908;2022-08-25T01:51:05;88884.84;;;22.14;55.85
72585;BME280;60618;40.084;32.908;2022-08-25T01:53:32;88880.16;;;22.14;56.06
72585;BME280;60618;40.084;32.908;2022-08-25T01:56:06;88878.72;;;22.13;55.32
72585;BME280;60618;40.084;32.908;2022-08-25T01:58:38;88876.78;;;22.23;54.39
72585;BME280;60618;40.084;32.908;2022-08-25T02:01:08;88885.06;;;22.25;54.01
72585;BME280;60618;40.084;32.908;2022-08-25T02:03:37;88877.91;;;22.20;53.79
72585;BME280;60618;40.084;32.908;2022-08-25T02:06:13;88885.16;;;22.35;53.79
72585;BME280;60618;40.084;32.908;2022-08-25T02:08:41;88896.72;;;22.35;53.52
72585;BME280;60618;40.084;32.908;2022-08-25T02:11:13;88897.03;;;22.40;53.72
72585;BME280;60618;40.084;32.908;2022-08-25T02:13:41;88890.00;;;22.36;53.86
72585;BME280;60618;40.084;32.908;2022-08-25T02:16:09;88895.13;;;22.32;54.03
72585;BME280;60618;40.084;32.908;2022-08-25T02:18:40;88896.00;;;22.35;53.50
72585;BME280;60618;40.084;32.908;2022-08-25T02:21:07;88894.56;;;22.34;54.20
72585;BME280;60618;40.084;32.908;2022-08-25T02:23:34;88902.41;;;22.30;53.92
72585;BME280;60618;40.084;32.908;2022-08-25T02:26:03;88907.66;;;22.28;54.49
72585;BME280;60618;40.084;32.908;2022-08-25T02:28:30;88903.91;;;22.23;54.66
72585;BME280;60618;40.084;32.908;2022-08-25T02:30:57;88910.78;;;22.24;53.89
72585;BME280;60618;40.084;32.908;2022-08-25T02:33:27;88910.78;;;22.24;54.19
72585;BME280;60618;40.084;32.908;2022-08-25T02:35:59;88909.00;;;22.19;54.96
72585;BME280;60618;40.084;32.908;2022-08-25T02:38:27;88915.72;;;22.18;54.89
72585;BME280;60618;40.084;32.908;2022-08-25T02:40:55;88917.97;;;22.12;54.73
72585;BME280;60618;40.084;32.908;2022-08-25T02:43:22;88914.19;;;22.07;55.39
72585;BME280;60618;40.084;32.908;2022-08-25T02:45:49;88919.28;;;22.03;55.12
72585;BME280;60618;40.084;32.908;2022-08-25T02:48:16;88905.16;;;22.05;54.92
72585;BME280;60618;40.084;32.908;2022-08-25T02:50:47;88910.78;;;22.07;54.65
72585;BME280;60618;40.084;32.908;2022-08-25T02:53:14;88919.25;;;22.11;54.25
72585;BME280;60618;40.084;32.908;2022-08-25T02:55:41;88930.09;;;22.11;54.85
72585;BME280;60618;40.084;32.908;2022-08-25T02:58:07;88925.03;;;22.07;55.11
72585;BME280;60618;40.084;32.908;2022-08-25T03:00:35;88930.84;;;22.04;55.37
72585;BME280;60618;40.084;32.908;2022-08-25T03:03:03;88936.13;;;22.02;55.65
72585;BME280;60618;40.084;32.908;2022-08-25T03:05:30;88941.34;;;22.00;54.92
72585;BME280;60618;40.084;32.908;2022-08-25T03:07:58;88951.81;;;22.03;55.16
72585;BME280;60618;40.084;32.908;2022-08-25T03:10:25;88948.22;;;22.01;55.22
72585;BME280;60618;40.084;32.908;2022-08-25T03:12:52;88961.63;;;21.99;55.30
72585;BME280;60618;40.084;32.908;2022-08-25T03:15:19;88964.16;;;21.97;55.62
72585;BME280;60618;40.084;32.908;2022-08-25T03:17:47;88969.75;;;21.99;55.41
72585;BME280;60618;40.084;32.908;2022-08-25T03:20:16;88975.19;;;21.99;56.00
72585;BME280;60618;40.084;32.908;2022-08-25T03:22:43;88975.34;;;22.01;57.05
72585;BME280;60618;40.084;32.908;2022-08-25T03:25:10;88982.75;;;22.00;56.18
72585;BME280;60618;40.084;32.908;2022-08-25T03:27:37;88994.31;;;22.01;56.70
72585;BME280;60618;40.084;32.908;2022-08-25T03:30:05;88987.66;;;22.02;57.22
72585;BME280;60618;40.084;32.908;2022-08-25T03:32:32;89001.69;;;22.08;57.30
72585;BME280;60618;40.084;32.908;2022-08-25T03:34:59;89010.34;;;22.14;57.09
72585;BME280;60618;40.084;32.908;2022-08-25T03:37:26;88984.97;;;22.19;56.69
72585;BME280;60618;40.084;32.908;2022-08-25T03:39:53;88952.97;;;22.35;55.30
72585;BME280;60618;40.084;32.908;2022-08-25T03:42:20;88937.03;;;22.56;53.76
72585;BME280;60618;40.084;32.908;2022-08-25T03:44:47;88962.06;;;22.64;53.63
72585;BME280;60618;40.084;32.908;2022-08-25T03:47:14;88996.50;;;22.62;54.27
72585;BME280;60618;40.084;32.908;2022-08-25T03:49:40;89002.88;;;22.57;54.09
72585;BME280;60618;40.084;32.908;2022-08-25T03:52:07;89001.44;;;22.56;53.91
72585;BME280;60618;40.084;32.908;2022-08-25T03:54:34;89004.47;;;22.60;54.22
72585;BME280;60618;40.084;32.908;2022-08-25T03:57:01;88999.47;;;22.74;55.10
72585;BME280;60618;40.084;32.908;2022-08-25T03:59:28;89000.72;;;22.73;57.10
72585;BME280;60618;40.084;32.908;2022-08-25T04:01:55;88998.56;;;22.71;57.91
72585;BME280;60618;40.084;32.908;2022-08-25T04:04:23;89008.00;;;22.70;57.84
72585;BME280;60618;40.084;32.908;2022-08-25T04:06:50;89004.56;;;22.70;57.24
72585;BME280;60618;40.084;32.908;2022-08-25T04:09:16;89010.41;;;22.66;56.67
72585;BME280;60618;40.084;32.908;2022-08-25T04:11:43;89011.69;;;22.65;56.68
72585;BME280;60618;40.084;32.908;2022-08-25T04:14:10;89014.38;;;22.65;56.43
72585;BME280;60618;40.084;32.908;2022-08-25T04:16:42;89011.13;;;22.66;56.52
72585;BME280;60618;40.084;32.908;2022-08-25T04:19:10;89020.69;;;22.67;56.64
72585;BME280;60618;40.084;32.908;2022-08-25T04:21:38;89017.25;;;22.67;56.74
72585;BME280;60618;40.084;32.908;2022-08-25T04:24:07;89017.41;;;22.69;56.59
72585;BME280;60618;40.084;32.908;2022-08-25T04:26:38;89020.13;;;22.69;56.14
72585;BME280;60618;40.084;32.908;2022-08-25T04:29:07;89012.28;;;22.73;56.25
72585;BME280;60618;40.084;32.908;2022-08-25T04:31:35;89018.06;;;22.77;56.51
72585;BME280;60618;40.084;32.908;2022-08-25T04:34:04;89016.22;;;22.80;56.10
72585;BME280;60618;40.084;32.908;2022-08-25T04:36:52;89009.69;;;22.83;55.68
72585;BME280;60618;40.084;32.908;2022-08-25T04:39:19;89016.72;;;22.86;55.90
72585;BME280;60618;40.084;32.908;2022-08-25T04:41:47;89016.47;;;22.91;55.76
72585;BME280;60618;40.084;32.908;2022-08-25T04:44:14;89017.41;;;23.04;56.24
72585;BME280;60618;40.084;32.908;2022-08-25T04:46:42;89017.72;;;23.08;58.07
72585;BME280;60618;40.084;32.908;2022-08-25T04:49:09;89020.19;;;23.13;57.38
72585;BME280;60618;40.084;32.908;2022-08-25T04:51:38;89020.13;;;23.21;57.10
72585;BME280;60618;40.084;32.908;2022-08-25T04:54:10;89014.66;;;23.38;56.60
72585;BME280;60618;40.084;32.908;2022-08-25T04:56:42;89014.59;;;23.56;55.12
72585;BME280;60618;40.084;32.908;2022-08-25T04:59:11;89018.44;;;23.79;54.17
72585;BME280;60618;40.084;32.908;2022-08-25T05:01:39;89021.97;;;23.99;54.24
72585;BME280;60618;40.084;32.908;2022-08-25T05:04:08;89018.16;;;24.22;52.46
72585;BME280;60618;40.084;32.908;2022-08-25T05:06:54;89025.13;;;24.52;52.38
72585;BME280;60618;40.084;32.908;2022-08-25T05:09:21;89026.03;;;24.74;51.55
72585;BME280;60618;40.084;32.908;2022-08-25T05:11:48;89028.47;;;24.89;51.04
72585;BME280;60618;40.084;32.908;2022-08-25T05:14:14;89031.94;;;24.99;50.31
72585;BME280;60618;40.084;32.908;2022-08-25T05:16:41;89031.06;;;25.06;50.07
72585;BME280;60618;40.084;32.908;2022-08-25T05:19:08;89031.94;;;25.18;49.59
72585;BME280;60618;40.084;32.908;2022-08-25T05:21:35;89024.75;;;25.33;49.33
72585;BME280;60618;40.084;32.908;2022-08-25T05:24:03;89025.75;;;25.47;49.41
72585;BME280;60618;40.084;32.908;2022-08-25T05:26:32;89023.59;;;25.45;48.88
72585;BME280;60618;40.084;32.908;2022-08-25T05:29:01;89028.31;;;25.55;48.66
72585;BME280;60618;40.084;32.908;2022-08-25T05:31:30;89032.19;;;25.61;49.46
72585;BME280;60618;40.084;32.908;2022-08-25T05:33:57;89037.06;;;25.72;48.76
72585;BME280;60618;40.084;32.908;2022-08-25T05:36:25;89032.00;;;25.69;48.38
72585;BME280;60618;40.084;32.908;2022-08-25T05:38:53;89035.19;;;25.65;47.99
72585;BME280;60618;40.084;32.908;2022-08-25T05:41:23;89037.63;;;25.61;48.42
72585;BME280;60618;40.084;32.908;2022-08-25T05:43:51;89031.88;;;25.57;48.10
72585;BME280;60618;40.084;32.908;2022-08-25T05:46:18;89034.75;;;25.59;48.28
72585;BME280;60618;40.084;32.908;2022-08-25T05:48:47;89032.44;;;25.65;48.65
72585;BME280;60618;40.084;32.908;2022-08-25T05:51:14;89032.00;;;25.79;47.99
72585;BME280;60618;40.084;32.908;2022-08-25T05:53:44;89028.44;;;25.76;46.90
72585;BME280;60618;40.084;32.908;2022-08-25T05:56:11;89035.16;;;25.85;47.30
72585;BME280;60618;40.084;32.908;2022-08-25T05:58:39;89024.63;;;26.00;47.17
72585;BME280;60618;40.084;32.908;2022-08-25T06:01:08;89020.84;;;26.15;46.79
72585;BME280;60618;40.084;32.908;2022-08-25T06:03:35;89025.66;;;26.26;46.46
72585;BME280;60618;40.084;32.908;2022-08-25T06:06:06;89020.34;;;26.28;46.05
72585;BME280;60618;40.084;32.908;2022-08-25T06:08:33;89018.31;;;26.29;45.89
72585;BME280;60618;40.084;32.908;2022-08-25T06:11:01;89018.00;;;26.44;45.97
72585;BME280;60618;40.084;32.908;2022-08-25T06:13:27;89018.06;;;26.56;45.29
72585;BME280;60618;40.084;32.908;2022-08-25T06:15:59;89023.41;;;26.75;45.87
72585;BME280;60618;40.084;32.908;2022-08-25T06:18:26;89021.84;;;26.94;44.81
72585;BME280;60618;40.084;32.908;2022-08-25T06:20:53;89023.41;;;26.97;44.80
72585;BME280;60618;40.084;32.908;2022-08-25T06:23:20;89012.59;;;26.99;44.31
72585;BME280;60618;40.084;32.908;2022-08-25T06:25:51;89026.03;;;27.16;44.37
72585;BME280;60618;40.084;32.908;2022-08-25T06:28:19;89021.31;;;27.28;43.23
72585;BME280;60618;40.084;32.908;2022-08-25T06:30:46;89016.81;;;27.33;43.45
72585;BME280;60618;40.084;32.908;2022-08-25T06:33:13;89022.31;;;27.44;43.70
72585;BME280;60618;40.084;32.908;2022-08-25T06:35:42;89019.03;;;27.58;43.06
72585;BME280;60618;40.084;32.908;2022-08-25T06:38:09;89025.91;;;27.80;43.89
72585;BME280;60618;40.084;32.908;2022-08-25T06:40:37;89029.84;;;28.00;43.59
72585;BME280;60618;40.084;32.908;2022-08-25T06:43:04;89020.81;;;28.10;42.93
72585;BME280;60618;40.084;32.908;2022-08-25T06:45:31;89023.22;;;28.15;42.98
72585;BME280;60618;40.084;32.908;2022-08-25T06:47:58;89020.81;;;28.21;42.97
72585;BME280;60618;40.084;32.908;2022-08-25T06:50:24;89017.50;;;28.23;42.04
72585;BME280;60618;40.084;32.908;2022-08-25T06:52:52;89017.53;;;28.35;41.54
72585;BME280;60618;40.084;32.908;2022-08-25T06:55:18;89012.75;;;28.35;40.27
72585;BME280;60618;40.084;32.908;2022-08-25T06:57:45;89017.03;;;28.38;40.90
72585;BME280;60618;40.084;32.908;2022-08-25T07:00:13;89018.00;;;28.54;41.08
72585;BME280;60618;40.084;32.908;2022-08-25T07:02:40;89012.38;;;28.64;39.84
72585;BME280;60618;40.084;32.908;2022-08-25T07:05:07;89009.63;;;28.76;39.67
72585;BME280;60618;40.084;32.908;2022-08-25T07:07:38;89015.56;;;28.84;39.09
72585;BME280;60618;40.084;32.908;2022-08-25T07:10:10;89012.72;;;28.94;39.17
72585;BME280;60618;40.084;32.908;2022-08-25T07:12:37;89008.53;;;29.04;39.48
72585;BME280;60618;40.084;32.908;2022-08-25T07:15:05;89019.34;;;29.14;39.50
72585;BME280;60618;40.084;32.908;2022-08-25T07:17:47;89018.59;;;29.25;38.91
72585;BME280;60618;40.084;32.908;2022-08-25T07:20:16;89006.84;;;29.36;38.32
72585;BME280;60618;40.084;32.908;2022-08-25T07:22:45;89012.28;;;29.60;37.37
72585;BME280;60618;40.084;32.908;2022-08-25T07:25:12;89011.94;;;29.79;37.28
72585;BME280;60618;40.084;32.908;2022-08-25T07:27:43;89012.09;;;29.95;37.17
72585;BME280;60618;40.084;32.908;2022-08-25T07:30:09;89011.44;;;30.08;36.44
72585;BME280;60618;40.084;32.908;2022-08-25T07:35:15;89015.03;;;30.24;37.15
72585;BME280;60618;40.084;32.908;2022-08-25T07:37:49;89004.66;;;30.37;36.88
72585;BME280;60618;40.084;32.908;2022-08-25T07:40:27;89010.97;;;30.53;36.05
72585;BME280;60618;40.084;32.908;2022-08-25T07:42:56;89010.41;;;30.68;35.40
72585;BME280;60618;40.084;32.908;2022-08-25T07:45:28;89008.16;;;30.78;35.62
72585;BME280;60618;40.084;32.908;2022-08-25T07:48:01;89018.31;;;30.90;35.84
72585;BME280;60618;40.084;32.908;2022-08-25T07:50:29;89016.06;;;31.00;35.22
72585;BME280;60618;40.084;32.908;2022-08-25T07:52:57;89011.50;;;31.04;35.50
72585;BME280;60618;40.084;32.908;2022-08-25T07:55:25;89005.78;;;31.14;34.89
72585;BME280;60618;40.084;32.908;2022-08-25T07:57:53;89013.75;;;31.22;34.84
72585;BME280;60618;40.084;32.908;2022-08-25T08:00:23;89005.44;;;31.35;35.06
72585;BME280;60618;40.084;32.908;2022-08-25T08:02:50;89010.22;;;31.49;34.28
72585;BME280;60618;40.084;32.908;2022-08-25T08:05:18;89017.31;;;31.54;33.84
72585;BME280;60618;40.084;32.908;2022-08-25T08:07:49;89008.34;;;31.53;33.86
72585;BME280;60618;40.084;32.908;2022-08-25T08:10:16;89001.94;;;31.49;33.87
72585;BME280;60618;40.084;32.908;2022-08-25T08:13:03;89002.38;;;31.43;34.15
72585;BME280;60618;40.084;32.908;2022-08-25T08:15:33;89003.59;;;31.40;33.83
72585;BME280;60618;40.084;32.908;2022-08-25T08:18:00;89004.00;;;31.34;34.20
72585;BME280;60618;40.084;32.908;2022-08-25T08:20:29;88994.34;;;31.20;32.82
72585;BME280;60618;40.084;32.908;2022-08-25T08:23:06;88988.78;;;31.04;33.38
72585;BME280;60618;40.084;32.908;2022-08-25T08:25:33;88988.47;;;30.98;34.04
72585;BME280;60618;40.084;32.908;2022-08-25T08:28:00;88984.13;;;30.93;32.99
72585;BME280;60618;40.084;32.908;2022-08-25T08:30:27;88981.16;;;30.89;33.33
72585;BME280;60618;40.084;32.908;2022-08-25T08:32:54;88992.75;;;31.01;33.26
72585;BME280;60618;40.084;32.908;2022-08-25T08:35:41;88989.09;;;31.10;32.97
72585;BME280;60618;40.084;32.908;2022-08-25T08:38:08;88986.94;;;31.22;33.04
72585;BME280;60618;40.084;32.908;2022-08-25T08:40:59;88979.59;;;31.13;32.96
72585;BME280;60618;40.084;32.908;2022-08-25T08:43:29;88991.63;;;31.06;33.21
72585;BME280;60618;40.084;32.908;2022-08-25T08:45:58;88992.03;;;31.00;33.42
72585;BME280;60618;40.084;32.908;2022-08-25T08:51:11;88991.34;;;30.72;34.05
72585;BME280;60618;40.084;32.908;2022-08-25T08:53:51;88987.38;;;30.48;34.53
72585;BME280;60618;40.084;32.908;2022-08-25T08:56:43;88990.94;;;30.50;34.78
72585;BME280;60618;40.084;32.908;2022-08-25T08:59:20;88978.63;;;30.65;35.15
72585;BME280;60618;40.084;32.908;2022-08-25T09:02:01;88982.09;;;30.79;34.89
72585;BME280;60618;40.084;32.908;2022-08-25T09:07:08;88970.56;;;30.97;34.94
72585;BME280;60618;40.084;32.908;2022-08-25T09:09:39;88968.50;;;31.11;34.00
72585;BME280;60618;40.084;32.908;2022-08-25T09:18:02;88978.06;;;31.24;33.08
72585;BME280;60618;40.084;32.908;2022-08-25T09:21:02;88973.69;;;31.05;33.68
72585;BME280;60618;40.084;32.908;2022-08-25T09:26:37;88964.31;;;31.10;34.39
72585;BME280;60618;40.084;32.908;2022-08-25T09:29:14;88966.25;;;31.21;34.27
72585;BME280;60618;40.084;32.908;2022-08-25T09:31:47;88974.69;;;31.25;33.52
72585;BME280;60618;40.084;32.908;2022-08-25T09:34:20;88967.81;;;31.40;33.36
72585;BME280;60618;40.084;32.908;2022-08-25T09:36:48;88970.72;;;31.28;32.67
72585;BME280;60618;40.084;32.908;2022-08-25T09:39:15;88970.94;;;31.05;33.43
72585;BME280;60618;40.084;32.908;2022-08-25T09:47:03;88966.06;;;31.03;34.37
72585;BME280;60618;40.084;32.908;2022-08-25T09:49:38;88948.78;;;31.17;34.14
72585;BME280;60618;40.084;32.908;2022-08-25T09:54:55;88955.63;;;31.59;32.55
72585;BME280;60618;40.084;32.908;2022-08-25T09:57:47;88952.81;;;31.73;32.71
72585;BME280;60618;40.084;32.908;2022-08-25T10:03:07;88953.19;;;31.97;32.71
72585;BME280;60618;40.084;32.908;2022-08-25T10:05:56;88948.59;;;32.17;31.97
72585;BME280;60618;40.084;32.908;2022-08-25T10:10:59;88934.38;;;32.07;31.25
72585;BME280;60618;40.084;32.908;2022-08-25T10:13:47;88944.56;;;31.88;30.73
72585;BME280;60618;40.084;32.908;2022-08-25T10:16:25;88950.44;;;31.51;31.01
72585;BME280;60618;40.084;32.908;2022-08-25T10:21:26;88936.44;;;31.31;30.91
72585;BME280;60618;40.084;32.908;2022-08-25T10:23:53;88932.19;;;31.15;30.99
72585;BME280;60618;40.084;32.908;2022-08-25T10:26:35;88930.94;;;30.88;32.27
72585;BME280;60618;40.084;32.908;2022-08-25T10:43:30;88936.25;;;30.70;31.75
72585;BME280;60618;40.084;32.908;2022-08-25T10:49:02;88922.63;;;30.59;32.47
72585;BME280;60618;40.084;32.908;2022-08-25T10:51:54;88926.69;;;30.71;32.87
72585;BME280;60618;40.084;32.908;2022-08-25T10:57:14;88920.09;;;31.06;32.25
72585;BME280;60618;40.084;32.908;2022-08-25T11:10:39;88909.94;;;31.38;30.59
72585;BME280;60618;40.084;32.908;2022-08-25T11:13:42;88915.59;;;31.42;30.89
72585;BME280;60618;40.084;32.908;2022-08-25T11:16:16;88908.63;;;31.25;30.61
72585;BME280;60618;40.084;32.908;2022-08-25T11:18:50;88908.75;;;31.27;30.77
72585;BME280;60618;40.084;32.908;2022-08-25T11:26:52;88904.16;;;31.77;30.53
72585;BME280;60618;40.084;32.908;2022-08-25T11:29:24;88907.25;;;31.85;29.68
72585;BME280;60618;40.084;32.908;2022-08-25T11:31:57;88901.91;;;31.89;30.20
72585;BME280;60618;40.084;32.908;2022-08-25T11:34:30;88903.63;;;31.97;30.10
72585;BME280;60618;40.084;32.908;2022-08-25T11:37:06;88901.41;;;32.09;29.77
72585;BME280;60618;40.084;32.908;2022-08-25T11:48:12;88902.19;;;31.80;30.53
72585;BME280;60618;40.084;32.908;2022-08-25T11:53:40;88884.19;;;31.63;30.29
72585;BME280;60618;40.084;32.908;2022-08-25T11:56:32;88882.41;;;31.54;30.32
72585;BME280;60618;40.084;32.908;2022-08-25T11:59:00;88903.28;;;31.59;29.68
72585;BME280;60618;40.084;32.908;2022-08-25T12:15:55;88884.63;;;31.12;30.78
72585;BME280;60618;40.084;32.908;2022-08-25T12:23:41;88892.16;;;31.41;30.09
72585;BME280;60618;40.084;32.908;2022-08-25T12:26:50;88878.03;;;31.03;31.29
72585;BME280;60618;40.084;32.908;2022-08-25T12:29:33;88868.91;;;30.85;31.13
72585;BME280;60618;40.084;32.908;2022-08-25T12:40:56;88884.53;;;30.53;31.46
72585;BME280;60618;40.084;32.908;2022-08-25T12:43:31;88891.84;;;30.62;31.63
72585;BME280;60618;40.084;32.908;2022-08-25T12:51:24;88879.34;;;30.59;31.63
72585;BME280;60618;40.084;32.908;2022-08-25T12:54:11;88881.81;;;30.39;31.97
72585;BME280;60618;40.084;32.908;2022-08-25T12:56:48;88876.63;;;30.18;32.61
72585;BME280;60618;40.084;32.908;2022-08-25T12:59:31;88874.66;;;30.07;33.03
72585;BME280;60618;40.084;32.908;2022-08-25T13:04:53;88877.94;;;30.17;32.25
72585;BME280;60618;40.084;32.908;2022-08-25T13:07:48;88873.16;;;30.17;32.65
72585;BME280;60618;40.084;32.908;2022-08-25T13:16:18;88868.88;;;30.42;32.18
72585;BME280;60618;40.084;32.908;2022-08-25T13:18:45;88884.97;;;30.34;31.91
72585;BME280;60618;40.084;32.908;2022-08-25T13:21:36;88886.19;;;30.31;31.74
72585;BME280;60618;40.084;32.908;2022-08-25T13:24:13;88873.88;;;30.18;32.60
72585;BME280;60618;40.084;32.908;2022-08-25T13:26:45;88869.81;;;30.19;32.61
72585;BME280;60618;40.084;32.908;2022-08-25T13:29:32;88881.81;;;30.26;32.43
72585;BME280;60618;40.084;32.908;2022-08-25T13:32:07;88877.44;;;30.48;31.20
72585;BME280;60618;40.084;32.908;2022-08-25T13:34:41;88856.47;;;30.41;31.55
72585;BME280;60618;40.084;32.908;2022-08-25T13:37:14;88862.59;;;30.26;31.77
72585;BME280;60618;40.084;32.908;2022-08-25T13:39:41;88873.34;;;29.94;32.39
72585;BME280;60618;40.084;32.908;2022-08-25T13:42:24;88877.63;;;29.97;32.12
72585;BME280;60618;40.084;32.908;2022-08-25T13:44:54;88875.97;;;29.92;31.64
72585;BME280;60618;40.084;32.908;2022-08-25T13:47:35;88866.09;;;29.59;32.57
72585;BME280;60618;40.084;32.908;2022-08-25T13:52:59;88866.75;;;29.46;32.34
72585;BME280;60618;40.084;32.908;2022-08-25T13:55:33;88875.22;;;29.50;32.51
72585;BME280;60618;40.084;32.908;2022-08-25T13:58:22;88879.13;;;29.73;31.77
72585;BME280;60618;40.084;32.908;2022-08-25T14:04:31;88875.78;;;29.88;32.52
72585;BME280;60618;40.084;32.908;2022-08-25T14:07:23;88866.63;;;29.70;33.09
72585;BME280;60618;40.084;32.908;2022-08-25T14:09:53;88866.09;;;29.59;32.22
72585;BME280;60618;40.084;32.908;2022-08-25T14:15:05;88879.81;;;29.59;31.77
72585;BME280;60618;40.084;32.908;2022-08-25T14:17:33;88870.19;;;29.33;32.75
72585;BME280;60618;40.084;32.908;2022-08-25T14:20:16;88863.81;;;29.17;33.55
72585;BME280;60618;40.084;32.908;2022-08-25T14:22:44;88861.69;;;29.15;33.88
72585;BME280;60618;40.084;32.908;2022-08-25T14:25:11;88868.66;;;29.30;33.39
72585;BME280;60618;40.084;32.908;2022-08-25T14:27:41;88870.84;;;29.20;33.74
72585;BME280;60618;40.084;32.908;2022-08-25T14:30:30;88877.97;;;29.25;32.42
72585;BME280;60618;40.084;32.908;2022-08-25T14:32:59;88876.09;;;29.41;31.44
72585;BME280;60618;40.084;32.908;2022-08-25T14:35:27;88874.91;;;29.19;32.80
72585;BME280;60618;40.084;32.908;2022-08-25T14:37:57;88870.09;;;29.05;33.06
72585;BME280;60618;40.084;32.908;2022-08-25T14:40:24;88864.44;;;28.90;33.36
72585;BME280;60618;40.084;32.908;2022-08-25T14:42:54;88878.84;;;28.90;33.69
72585;BME280;60618;40.084;32.908;2022-08-25T14:45:21;88873.91;;;29.00;32.71
72585;BME280;60618;40.084;32.908;2022-08-25T14:47:48;88880.72;;;28.99;33.08
72585;BME280;60618;40.084;32.908;2022-08-25T14:50:16;88879.44;;;28.89;33.61
72585;BME280;60618;40.084;32.908;2022-08-25T14:52:46;88882.69;;;28.85;33.10
72585;BME280;60618;40.084;32.908;2022-08-25T14:55:18;88879.19;;;28.84;32.17
72585;BME280;60618;40.084;32.908;2022-08-25T14:57:58;88886.13;;;28.86;32.34
72585;BME280;60618;40.084;32.908;2022-08-25T15:00:25;88888.03;;;28.95;32.23
72585;BME280;60618;40.084;32.908;2022-08-25T15:02:53;88891.25;;;29.17;31.66
72585;BME280;60618;40.084;32.908;2022-08-25T15:05:23;88892.47;;;29.14;31.41
72585;BME280;60618;40.084;32.908;2022-08-25T15:07:52;88890.91;;;29.10;31.83
72585;BME280;60618;40.084;32.908;2022-08-25T15:10:20;88883.56;;;29.01;32.27
72585;BME280;60618;40.084;32.908;2022-08-25T15:12:47;88892.31;;;28.98;31.84
72585;BME280;60618;40.084;32.908;2022-08-25T15:15:19;88898.13;;;29.04;31.99
72585;BME280;60618;40.084;32.908;2022-08-25T15:17:46;88896.84;;;28.93;31.91
72585;BME280;60618;40.084;32.908;2022-08-25T15:20:15;88893.03;;;28.87;30.80
72585;BME280;60618;40.084;32.908;2022-08-25T15:22:42;88892.09;;;28.82;31.32
72585;BME280;60618;40.084;32.908;2022-08-25T15:25:09;88884.09;;;28.86;31.68